sensor_id;sensor_type;location;lat;lon;timestamp;pressure;altitude;pressure_sealevel;temperature;humidity
49825;BME280;35714;55.708;37.478;2023-08-20T00:00:03;99863.81;;;21.95;66.82
49825;BME280;35714;55.708;37.478;2023-08-20T00:02:41;99853.06;;;21.94;66.39
49825;BME280;35714;55.708;37.478;2023-08-20T00:05:07;99850.59;;;21.92;66.70
49825;BME280;35714;55.708;37.478;2023-08-20T00:07:33;99846.19;;;21.91;66.53
49825;BME280;35714;55.708;37.478;2023-08-20T00:09:59;99855.59;;;21.90;66.71
49825;BME280;35714;55.708;37.478;2023-08-20T00:12:25;99837.41;;;21.89;66.69
49825;BME280;35714;55.708;37.478;2023-08-20T00:15:02;99837.41;;;21.89;67.12
49825;BME280;35714;55.708;37.478;2023-08-20T00:17:34;99835.78;;;21.88;66.65
49825;BME280;35714;55.708;37.478;2023-08-20T00:20:01;99831.66;;;21.86;66.57
49825;BME280;35714;55.708;37.478;2023-08-20T00:22:29;99833.00;;;21.88;66.75
49825;BME280;35714;55.708;37.478;2023-08-20T00:24:56;99826.16;;;21.86;66.81
49825;BME280;35714;55.708;37.478;2023-08-20T00:27:22;99823.69;;;21.84;66.93
49825;BME280;35714;55.708;37.478;2023-08-20T00:29:47;99828.09;;;21.85;66.83
49825;BME280;35714;55.708;37.478;2023-08-20T00:32:14;99813.84;;;21.78;66.74
49825;BME280;35714;55.708;37.478;2023-08-20T00:34:40;99818.47;;;21.83;67.10
49825;BME280;35714;55.708;37.478;2023-08-20T00:37:06;99810.78;;;21.79;66.90
49825;BME280;35714;55.708;37.478;2023-08-20T00:39:32;99804.44;;;21.79;66.91
49825;BME280;35714;55.708;37.478;2023-08-20T00:41:58;99798.94;;;21.79;66.81
49825;BME280;35714;55.708;37.478;2023-08-20T00:44:24;99798.09;;;21.78;67.04
49825;BME280;35714;55.708;37.478;2023-08-20T00:46:50;99798.94;;;21.79;67.09
49825;BME280;35714;55.708;37.478;2023-08-20T00:49:17;99803.59;;;21.78;67.14
49825;BME280;35714;55.708;37.478;2023-08-20T00:51:43;99798.09;;;21.78;67.21
49825;BME280;35714;55.708;37.478;2023-08-20T00:54:10;99783.56;;;21.73;67.21
49825;BME280;35714;55.708;37.478;2023-08-20T00:56:36;99793.91;;;21.81;67.42
49825;BME280;35714;55.708;37.478;2023-08-20T00:59:04;99790.56;;;21.84;67.42
49825;BME280;35714;55.708;37.478;2023-08-20T01:01:30;99786.69;;;21.85;67.33
49825;BME280;35714;55.708;37.478;2023-08-20T01:03:57;99792.41;;;21.89;67.25
49825;BME280;35714;55.708;37.478;2023-08-20T01:11:59;99780.56;;;21.88;67.32
49825;BME280;35714;55.708;37.478;2023-08-20T01:14:26;99787.69;;;21.89;67.14
49825;BME280;35714;55.708;37.478;2023-08-20T01:16:52;99776.16;;;21.87;67.01
49825;BME280;35714;55.708;37.478;2023-08-20T01:19:19;99792.19;;;21.85;67.12
49825;BME280;35714;55.708;37.478;2023-08-20T01:24:54;99784.44;;;21.87;67.25
49825;BME280;35714;55.708;37.478;2023-08-20T01:30:23;99789.97;;;21.87;67.05
49825;BME280;35714;55.708;37.478;2023-08-20T01:32:50;99791.06;;;21.86;67.26
49825;BME280;35714;55.708;37.478;2023-08-20T01:35:18;99780.94;;;21.81;67.43
49825;BME280;35714;55.708;37.478;2023-08-20T01:37:44;99784.22;;;21.84;67.39
49825;BME280;35714;55.708;37.478;2023-08-20T01:40:10;99786.75;;;21.80;67.74
49825;BME280;35714;55.708;37.478;2023-08-20T01:42:38;99774.16;;;21.74;68.09
49825;BME280;35714;55.708;37.478;2023-08-20T01:45:05;99786.31;;;21.73;68.21
49825;BME280;35714;55.708;37.478;2023-08-20T01:47:32;99788.03;;;21.69;68.97
49825;BME280;35714;55.708;37.478;2023-08-20T01:50:00;99788.34;;;21.67;69.06
49825;BME280;35714;55.708;37.478;2023-08-20T01:52:26;99782.59;;;21.63;69.41
49825;BME280;35714;55.708;37.478;2023-08-20T01:54:52;99780.75;;;21.59;69.26
49825;BME280;35714;55.708;37.478;2023-08-20T01:57:19;99797.00;;;21.60;69.22
49825;BME280;35714;55.708;37.478;2023-08-20T01:59:45;99800.28;;;21.62;69.60
49825;BME280;35714;55.708;37.478;2023-08-20T02:02:10;99795.91;;;21.61;69.87
49825;BME280;35714;55.708;37.478;2023-08-20T02:04:36;99792.00;;;21.62;69.83
49825;BME280;35714;55.708;37.478;2023-08-20T02:07:02;99787.63;;;21.61;69.53
49825;BME280;35714;55.708;37.478;2023-08-20T02:09:27;99795.91;;;21.61;69.94
49825;BME280;35714;55.708;37.478;2023-08-20T02:11:53;99798.31;;;21.63;69.92
49825;BME280;35714;55.708;37.478;2023-08-20T02:14:19;99800.28;;;21.62;69.74
49825;BME280;35714;55.708;37.478;2023-08-20T02:16:48;99804.16;;;21.61;69.82
49825;BME280;35714;55.708;37.478;2023-08-20T02:19:14;99800.97;;;21.54;69.86
49825;BME280;35714;55.708;37.478;2023-08-20T02:21:40;99807.06;;;21.51;70.11
49825;BME280;35714;55.708;37.478;2023-08-20T02:24:06;99814.00;;;21.49;70.29
49825;BME280;35714;55.708;37.478;2023-08-20T02:26:32;99812.59;;;21.51;70.33
49825;BME280;35714;55.708;37.478;2023-08-20T02:28:58;99817.81;;;21.53;70.03
49825;BME280;35714;55.708;37.478;2023-08-20T02:31:23;99810.88;;;21.55;70.10
49825;BME280;35714;55.708;37.478;2023-08-20T02:33:49;99798.50;;;21.53;70.07
49825;BME280;35714;55.708;37.478;2023-08-20T02:36:15;99806.78;;;21.53;69.88
49825;BME280;35714;55.708;37.478;2023-08-20T02:38:41;99798.19;;;21.54;69.99
49825;BME280;35714;55.708;37.478;2023-08-20T02:41:08;99799.84;;;21.55;70.02
49825;BME280;35714;55.708;37.478;2023-08-20T02:43:34;99793.72;;;21.58;69.76
49825;BME280;35714;55.708;37.478;2023-08-20T02:46:01;99797.22;;;21.64;69.57
49825;BME280;35714;55.708;37.478;2023-08-20T02:48:28;99791.59;;;21.69;69.43
49825;BME280;35714;55.708;37.478;2023-08-20T02:50:54;99804.16;;;21.80;69.12
49825;BME280;35714;55.708;37.478;2023-08-20T02:53:21;99789.34;;;21.90;68.80
49825;BME280;35714;55.708;37.478;2023-08-20T02:55:46;99780.28;;;22.04;68.19
49825;BME280;35714;55.708;37.478;2023-08-20T02:58:12;99782.06;;;22.13;67.90
49825;BME280;35714;55.708;37.478;2023-08-20T03:00:38;99780.81;;;22.20;67.47
49825;BME280;35714;55.708;37.478;2023-08-20T03:03:05;99804.44;;;22.31;67.30
49825;BME280;35714;55.708;37.478;2023-08-20T03:05:34;99810.16;;;22.34;67.02
49825;BME280;35714;55.708;37.478;2023-08-20T03:08:01;99809.09;;;22.30;67.44
49825;BME280;35714;55.708;37.478;2023-08-20T03:10:27;99807.22;;;22.26;67.29
49825;BME280;35714;55.708;37.478;2023-08-20T03:12:53;99813.34;;;22.23;67.57
49825;BME280;35714;55.708;37.478;2023-08-20T03:15:19;99824.81;;;22.16;67.81
49825;BME280;35714;55.708;37.478;2023-08-20T03:17:44;99840.72;;;22.05;68.33
49825;BME280;35714;55.708;37.478;2023-08-20T03:20:11;99835.16;;;21.91;68.84
49825;BME280;35714;55.708;37.478;2023-08-20T03:22:37;99831.16;;;21.84;69.25
49825;BME280;35714;55.708;37.478;2023-08-20T03:25:04;99817.88;;;21.67;69.95
49825;BME280;35714;55.708;37.478;2023-08-20T03:27:31;99833.38;;;21.62;70.37
49825;BME280;35714;55.708;37.478;2023-08-20T03:29:57;99855.38;;;21.49;70.85
49825;BME280;35714;55.708;37.478;2023-08-20T03:32:23;99862.56;;;21.25;72.52
49825;BME280;35714;55.708;37.478;2023-08-20T03:34:50;99865.63;;;21.00;73.86
49825;BME280;35714;55.708;37.478;2023-08-20T03:37:18;99863.09;;;20.79;74.89
49825;BME280;35714;55.708;37.478;2023-08-20T03:39:43;99867.13;;;20.63;75.99
49825;BME280;35714;55.708;37.478;2023-08-20T03:42:09;99872.13;;;20.55;76.52
49825;BME280;35714;55.708;37.478;2023-08-20T03:44:35;99867.78;;;20.49;76.81
49825;BME280;35714;55.708;37.478;2023-08-20T03:47:01;99851.59;;;20.43;77.34
49825;BME280;35714;55.708;37.478;2023-08-20T03:49:26;99827.69;;;20.38;77.54
49825;BME280;35714;55.708;37.478;2023-08-20T03:51:52;99821.09;;;20.34;77.54
49825;BME280;35714;55.708;37.478;2023-08-20T03:54:18;99815.59;;;20.34;77.91
49825;BME280;35714;55.708;37.478;2023-08-20T03:56:44;99791.94;;;20.33;78.47
49825;BME280;35714;55.708;37.478;2023-08-20T03:59:10;99778.69;;;20.35;78.70
49825;BME280;35714;55.708;37.478;2023-08-20T04:01:35;99755.56;;;20.36;79.11
49825;BME280;35714;55.708;37.478;2023-08-20T04:04:03;99759.13;;;20.36;78.99
49825;BME280;35714;55.708;37.478;2023-08-20T04:06:29;99741.78;;;20.36;79.14
49825;BME280;35714;55.708;37.478;2023-08-20T04:08:55;99724.41;;;20.35;78.92
49825;BME280;35714;55.708;37.478;2023-08-20T04:11:21;99721.09;;;20.38;79.39
49825;BME280;35714;55.708;37.478;2023-08-20T04:13:46;99718.03;;;20.40;79.39
49825;BME280;35714;55.708;37.478;2023-08-20T04:16:12;99712.81;;;20.38;79.72
49825;BME280;35714;55.708;37.478;2023-08-20T04:18:39;99708.66;;;20.41;79.22
49825;BME280;35714;55.708;37.478;2023-08-20T04:21:06;99720.84;;;20.35;78.34
49825;BME280;35714;55.708;37.478;2023-08-20T04:23:33;99730.50;;;20.32;78.32
49825;BME280;35714;55.708;37.478;2023-08-20T04:25:59;99731.94;;;20.30;78.65
49825;BME280;35714;55.708;37.478;2023-08-20T04:28:25;99745.72;;;20.30;78.65
49825;BME280;35714;55.708;37.478;2023-08-20T04:30:54;99751.22;;;20.30;79.06
49825;BME280;35714;55.708;37.478;2023-08-20T04:33:21;99760.06;;;20.27;79.19
49825;BME280;35714;55.708;37.478;2023-08-20T04:35:48;99761.38;;;20.29;79.18
49825;BME280;35714;55.708;37.478;2023-08-20T04:38:17;99776.47;;;20.37;79.60
49825;BME280;35714;55.708;37.478;2023-08-20T04:40:46;99778.09;;;20.38;78.91
49825;BME280;35714;55.708;37.478;2023-08-20T04:43:13;99783.63;;;20.38;78.31
49825;BME280;35714;55.708;37.478;2023-08-20T04:45:39;99789.72;;;20.35;78.11
49825;BME280;35714;55.708;37.478;2023-08-20T04:48:05;99777.03;;;20.34;78.54
49825;BME280;35714;55.708;37.478;2023-08-20T04:50:31;99766.28;;;20.37;78.38
49825;BME280;35714;55.708;37.478;2023-08-20T04:52:58;99763.75;;;20.41;77.69
49825;BME280;35714;55.708;37.478;2023-08-20T04:55:28;99767.63;;;20.40;77.69
49825;BME280;35714;55.708;37.478;2023-08-20T04:57:53;99770.91;;;20.42;77.40
49825;BME280;35714;55.708;37.478;2023-08-20T05:00:21;99759.59;;;20.44;77.58
49825;BME280;35714;55.708;37.478;2023-08-20T05:02:53;99757.59;;;20.49;77.82
49825;BME280;35714;55.708;37.478;2023-08-20T05:05:21;99757.50;;;20.60;77.13
49825;BME280;35714;55.708;37.478;2023-08-20T05:07:49;99757.97;;;20.67;76.92
49825;BME280;35714;55.708;37.478;2023-08-20T05:10:14;99748.25;;;20.75;76.82
49825;BME280;35714;55.708;37.478;2023-08-20T05:12:40;99756.09;;;20.86;76.63
49825;BME280;35714;55.708;37.478;2023-08-20T05:15:07;99745.97;;;21.01;75.83
49825;BME280;35714;55.708;37.478;2023-08-20T05:17:33;99750.16;;;21.17;75.82
49825;BME280;35714;55.708;37.478;2023-08-20T05:19:59;99755.34;;;21.38;75.38
49825;BME280;35714;55.708;37.478;2023-08-20T05:22:26;99742.19;;;21.54;74.57
49825;BME280;35714;55.708;37.478;2023-08-20T05:24:51;99732.84;;;21.69;73.81
49825;BME280;35714;55.708;37.478;2023-08-20T05:27:17;99733.09;;;21.86;73.09
49825;BME280;35714;55.708;37.478;2023-08-20T05:29:45;99735.59;;;22.02;71.55
49825;BME280;35714;55.708;37.478;2023-08-20T05:32:11;99733.16;;;22.14;70.57
49825;BME280;35714;55.708;37.478;2023-08-20T05:34:37;99724.16;;;22.22;69.68
49825;BME280;35714;55.708;37.478;2023-08-20T05:37:03;99723.16;;;22.32;69.65
49825;BME280;35714;55.708;37.478;2023-08-20T05:39:30;99720.53;;;22.41;69.15
49825;BME280;35714;55.708;37.478;2023-08-20T05:42:02;99719.00;;;22.48;69.03
49825;BME280;35714;55.708;37.478;2023-08-20T05:44:28;99712.44;;;22.58;69.02
49825;BME280;35714;55.708;37.478;2023-08-20T05:46:53;99710.16;;;22.60;68.79
49825;BME280;35714;55.708;37.478;2023-08-20T05:49:22;99702.41;;;22.62;68.75
49825;BME280;35714;55.708;37.478;2023-08-20T05:51:47;99708.00;;;22.71;68.63
49825;BME280;35714;55.708;37.478;2023-08-20T05:54:13;99705.97;;;22.77;67.62
49825;BME280;35714;55.708;37.478;2023-08-20T05:56:39;99706.16;;;22.80;67.39
49825;BME280;35714;55.708;37.478;2023-08-20T05:59:05;99705.53;;;22.83;67.19
49825;BME280;35714;55.708;37.478;2023-08-20T06:01:31;99709.63;;;22.86;67.08
49825;BME280;35714;55.708;37.478;2023-08-20T06:03:57;99707.56;;;22.92;67.03
49825;BME280;35714;55.708;37.478;2023-08-20T06:06:23;99695.88;;;23.09;66.03
49825;BME280;35714;55.708;37.478;2023-08-20T06:08:48;99692.25;;;23.22;65.94
49825;BME280;35714;55.708;37.478;2023-08-20T06:11:14;99698.81;;;23.49;65.80
49825;BME280;35714;55.708;37.478;2023-08-20T06:13:40;99692.75;;;23.69;64.23
49825;BME280;35714;55.708;37.478;2023-08-20T06:16:07;99695.50;;;23.92;63.77
49825;BME280;35714;55.708;37.478;2023-08-20T06:18:33;99692.03;;;24.18;63.27
49825;BME280;35714;55.708;37.478;2023-08-20T06:20:59;99699.19;;;24.50;62.23
49825;BME280;35714;55.708;37.478;2023-08-20T06:23:24;99687.53;;;24.79;62.06
49825;BME280;35714;55.708;37.478;2023-08-20T06:25:51;99684.97;;;25.09;60.77
49825;BME280;35714;55.708;37.478;2023-08-20T06:28:17;99690.81;;;25.25;59.96
49825;BME280;35714;55.708;37.478;2023-08-20T06:30:44;99683.50;;;25.38;59.59
49825;BME280;35714;55.708;37.478;2023-08-20T06:33:11;99689.38;;;25.45;58.23
49825;BME280;35714;55.708;37.478;2023-08-20T06:35:37;99692.31;;;25.40;57.99
49825;BME280;35714;55.708;37.478;2023-08-20T06:38:03;99686.28;;;25.38;58.38
49825;BME280;35714;55.708;37.478;2023-08-20T06:40:29;99685.28;;;25.43;57.68
49825;BME280;35714;55.708;37.478;2023-08-20T06:42:55;99674.84;;;25.39;57.76
49825;BME280;35714;55.708;37.478;2023-08-20T06:45:20;99676.16;;;25.42;58.48
49825;BME280;35714;55.708;37.478;2023-08-20T06:47:46;99676.47;;;25.58;58.16
49825;BME280;35714;55.708;37.478;2023-08-20T06:50:12;99665.97;;;25.64;57.83
49825;BME280;35714;55.708;37.478;2023-08-20T06:52:37;99664.50;;;25.66;57.13
49825;BME280;35714;55.708;37.478;2023-08-20T06:55:03;99665.59;;;25.83;57.57
49825;BME280;35714;55.708;37.478;2023-08-20T06:57:29;99667.38;;;26.05;56.41
49825;BME280;35714;55.708;37.478;2023-08-20T06:59:55;99657.13;;;26.26;54.42
49825;BME280;35714;55.708;37.478;2023-08-20T07:02:21;99663.00;;;26.55;52.20
49825;BME280;35714;55.708;37.478;2023-08-20T07:04:46;99668.31;;;26.77;52.61
49825;BME280;35714;55.708;37.478;2023-08-20T07:07:12;99667.16;;;26.99;51.15
49825;BME280;35714;55.708;37.478;2023-08-20T07:09:38;99664.69;;;27.19;51.09
49825;BME280;35714;55.708;37.478;2023-08-20T07:12:05;99671.34;;;27.48;50.16
49825;BME280;35714;55.708;37.478;2023-08-20T07:14:31;99665.50;;;27.74;48.79
49825;BME280;35714;55.708;37.478;2023-08-20T07:16:56;99668.03;;;28.00;48.26
49825;BME280;35714;55.708;37.478;2023-08-20T07:19:22;99667.81;;;28.18;47.07
49825;BME280;35714;55.708;37.478;2023-08-20T07:21:48;99655.25;;;28.36;46.06
49825;BME280;35714;55.708;37.478;2023-08-20T07:24:13;99666.28;;;28.45;46.79
49825;BME280;35714;55.708;37.478;2023-08-20T07:26:39;99663.59;;;28.73;45.67
49825;BME280;35714;55.708;37.478;2023-08-20T07:29:05;99660.88;;;28.89;45.12
49825;BME280;35714;55.708;37.478;2023-08-20T07:31:32;99670.25;;;29.09;45.11
49825;BME280;35714;55.708;37.478;2023-08-20T07:33:59;99666.00;;;29.40;46.01
49825;BME280;35714;55.708;37.478;2023-08-20T07:36:26;99667.66;;;29.85;44.31
49825;BME280;35714;55.708;37.478;2023-08-20T07:38:53;99652.03;;;30.00;43.45
49825;BME280;35714;55.708;37.478;2023-08-20T07:41:19;99657.34;;;30.21;42.71
49825;BME280;35714;55.708;37.478;2023-08-20T07:43:46;99648.22;;;30.24;41.78
49825;BME280;35714;55.708;37.478;2023-08-20T07:46:12;99649.25;;;30.48;41.67
49825;BME280;35714;55.708;37.478;2023-08-20T07:48:38;99659.28;;;30.69;40.31
49825;BME280;35714;55.708;37.478;2023-08-20T07:51:04;99657.97;;;30.82;40.30
49825;BME280;35714;55.708;37.478;2023-08-20T07:53:31;99641.69;;;31.04;40.27
49825;BME280;35714;55.708;37.478;2023-08-20T07:55:57;99640.44;;;31.44;39.72
49825;BME280;35714;55.708;37.478;2023-08-20T07:58:22;99639.97;;;31.81;38.91
49825;BME280;35714;55.708;37.478;2023-08-20T08:00:48;99643.94;;;32.03;38.31
49825;BME280;35714;55.708;37.478;2023-08-20T08:03:13;99635.31;;;32.12;38.03
49825;BME280;35714;55.708;37.478;2023-08-20T08:05:52;99648.31;;;32.00;38.67
49825;BME280;35714;55.708;37.478;2023-08-20T08:08:20;99635.78;;;32.17;38.17
49825;BME280;35714;55.708;37.478;2023-08-20T08:10:46;99643.09;;;32.22;37.85
49825;BME280;35714;55.708;37.478;2023-08-20T08:13:19;99638.94;;;32.39;36.97
49825;BME280;35714;55.708;37.478;2023-08-20T08:15:45;99636.00;;;32.59;36.88
49825;BME280;35714;55.708;37.478;2023-08-20T08:18:11;99633.00;;;32.71;36.40
49825;BME280;35714;55.708;37.478;2023-08-20T08:20:37;99634.31;;;32.81;35.99
49825;BME280;35714;55.708;37.478;2023-08-20T08:23:03;99618.53;;;32.99;35.69
49825;BME280;35714;55.708;37.478;2023-08-20T08:25:29;99621.38;;;33.33;35.25
49825;BME280;35714;55.708;37.478;2023-08-20T08:27:55;99618.09;;;33.69;35.19
49825;BME280;35714;55.708;37.478;2023-08-20T08:30:21;99615.59;;;34.01;34.50
49825;BME280;35714;55.708;37.478;2023-08-20T08:32:47;99606.97;;;34.28;33.35
49825;BME280;35714;55.708;37.478;2023-08-20T08:35:12;99605.63;;;34.74;34.38
49825;BME280;35714;55.708;37.478;2023-08-20T08:37:38;99610.00;;;35.63;32.73
49825;BME280;35714;55.708;37.478;2023-08-20T08:40:04;99612.81;;;36.42;30.79
49825;BME280;35714;55.708;37.478;2023-08-20T08:42:33;99597.00;;;36.70;30.02
49825;BME280;35714;55.708;37.478;2023-08-20T08:45:00;99602.59;;;36.91;30.25
49825;BME280;35714;55.708;37.478;2023-08-20T08:47:27;99600.19;;;37.60;30.08
49825;BME280;35714;55.708;37.478;2023-08-20T08:49:55;99597.47;;;38.47;28.37
49825;BME280;35714;55.708;37.478;2023-08-20T08:52:25;99596.06;;;38.97;27.00
49825;BME280;35714;55.708;37.478;2023-08-20T08:54:52;99607.59;;;38.83;24.26
49825;BME280;35714;55.708;37.478;2023-08-20T08:57:18;99607.66;;;38.41;25.27
49825;BME280;35714;55.708;37.478;2023-08-20T08:59:44;99612.25;;;38.24;25.43
49825;BME280;35714;55.708;37.478;2023-08-20T09:02:11;99619.47;;;38.70;26.13
49825;BME280;35714;55.708;37.478;2023-08-20T09:04:41;99619.91;;;39.61;25.84
49825;BME280;35714;55.708;37.478;2023-08-20T09:07:14;99620.63;;;40.40;24.66
49825;BME280;35714;55.708;37.478;2023-08-20T09:09:46;99627.72;;;40.96;23.80
49825;BME280;35714;55.708;37.478;2023-08-20T09:14:45;99644.91;;;40.88;22.32
49825;BME280;35714;55.708;37.478;2023-08-20T09:17:11;99630.50;;;39.84;23.24
49825;BME280;35714;55.708;37.478;2023-08-20T09:19:37;99617.47;;;38.67;24.63
49825;BME280;35714;55.708;37.478;2023-08-20T09:22:03;99606.81;;;38.40;24.75
49825;BME280;35714;55.708;37.478;2023-08-20T09:24:33;99601.69;;;38.28;24.81
49825;BME280;35714;55.708;37.478;2023-08-20T09:27:03;99604.13;;;38.26;25.81
49825;BME280;35714;55.708;37.478;2023-08-20T09:29:32;99602.69;;;38.87;24.82
49825;BME280;35714;55.708;37.478;2023-08-20T09:32:02;99594.31;;;39.65;24.88
49825;BME280;35714;55.708;37.478;2023-08-20T09:34:36;99597.06;;;40.19;24.09
49825;BME280;35714;55.708;37.478;2023-08-20T09:37:03;99587.19;;;40.04;23.25
49825;BME280;35714;55.708;37.478;2023-08-20T09:39:29;99581.38;;;39.64;23.36
49825;BME280;35714;55.708;37.478;2023-08-20T09:41:55;99589.69;;;39.47;23.40
49825;BME280;35714;55.708;37.478;2023-08-20T09:44:23;99585.13;;;39.57;23.64
49825;BME280;35714;55.708;37.478;2023-08-20T09:46:49;99580.41;;;39.98;23.79
49825;BME280;35714;55.708;37.478;2023-08-20T09:49:17;99580.72;;;40.03;23.20
49825;BME280;35714;55.708;37.478;2023-08-20T09:51:47;99590.00;;;39.57;22.81
49825;BME280;35714;55.708;37.478;2023-08-20T09:54:50;99581.44;;;39.02;23.36
49825;BME280;35714;55.708;37.478;2023-08-20T09:59:54;99583.09;;;37.22;26.28
49825;BME280;35714;55.708;37.478;2023-08-20T10:02:20;99582.41;;;36.96;26.54
49825;BME280;35714;55.708;37.478;2023-08-20T10:04:47;99582.34;;;37.03;27.38
49825;BME280;35714;55.708;37.478;2023-08-20T10:07:14;99575.88;;;37.10;26.78
49825;BME280;35714;55.708;37.478;2023-08-20T10:09:40;99568.84;;;36.48;27.15
49825;BME280;35714;55.708;37.478;2023-08-20T10:12:07;99574.53;;;35.72;27.97
49825;BME280;35714;55.708;37.478;2023-08-20T10:14:34;99562.34;;;35.11;29.07
49825;BME280;35714;55.708;37.478;2023-08-20T10:17:06;99558.16;;;34.72;30.08
49825;BME280;35714;55.708;37.478;2023-08-20T10:19:32;99555.72;;;34.63;30.50
49825;BME280;35714;55.708;37.478;2023-08-20T10:21:58;99560.44;;;34.45;30.97
49825;BME280;35714;55.708;37.478;2023-08-20T10:24:24;99546.97;;;34.16;31.55
49825;BME280;35714;55.708;37.478;2023-08-20T10:27:07;99550.13;;;34.11;31.11
49825;BME280;35714;55.708;37.478;2023-08-20T10:29:40;99545.38;;;33.67;32.51
49825;BME280;35714;55.708;37.478;2023-08-20T10:32:10;99544.34;;;33.41;32.79
49825;BME280;35714;55.708;37.478;2023-08-20T10:34:37;99536.56;;;33.24;33.89
49825;BME280;35714;55.708;37.478;2023-08-20T10:37:13;99524.94;;;33.25;33.58
49825;BME280;35714;55.708;37.478;2023-08-20T10:39:39;99527.00;;;33.32;33.43
49825;BME280;35714;55.708;37.478;2023-08-20T10:42:23;99521.66;;;33.20;33.54
49825;BME280;35714;55.708;37.478;2023-08-20T10:45:08;99522.81;;;32.81;33.93
49825;BME280;35714;55.708;37.478;2023-08-20T10:47:44;99514.50;;;32.58;35.21
49825;BME280;35714;55.708;37.478;2023-08-20T10:50:11;99521.59;;;32.48;34.65
49825;BME280;35714;55.708;37.478;2023-08-20T10:52:41;99517.56;;;32.49;35.12
49825;BME280;35714;55.708;37.478;2023-08-20T10:55:13;99510.84;;;32.24;34.82
49825;BME280;35714;55.708;37.478;2023-08-20T10:57:38;99512.91;;;32.03;34.72
49825;BME280;35714;55.708;37.478;2023-08-20T11:00:05;99508.81;;;31.47;36.01
49825;BME280;35714;55.708;37.478;2023-08-20T11:02:35;99519.78;;;31.10;37.10
49825;BME280;35714;55.708;37.478;2023-08-20T11:05:02;99523.59;;;30.82;37.99
49825;BME280;35714;55.708;37.478;2023-08-20T11:07:30;99519.94;;;30.39;38.84
49825;BME280;35714;55.708;37.478;2023-08-20T11:09:57;99509.38;;;29.97;39.79
49825;BME280;35714;55.708;37.478;2023-08-20T11:12:23;99512.25;;;29.68;40.13
49825;BME280;35714;55.708;37.478;2023-08-20T11:14:49;99512.00;;;29.58;40.40
49825;BME280;35714;55.708;37.478;2023-08-20T11:17:15;99508.75;;;29.56;41.04
49825;BME280;35714;55.708;37.478;2023-08-20T11:19:41;99500.63;;;29.50;41.38
49825;BME280;35714;55.708;37.478;2023-08-20T11:22:08;99496.84;;;29.27;41.31
49825;BME280;35714;55.708;37.478;2023-08-20T11:24:33;99494.09;;;29.14;41.71
49825;BME280;35714;55.708;37.478;2023-08-20T11:26:59;99485.81;;;29.02;42.15
49825;BME280;35714;55.708;37.478;2023-08-20T11:29:25;99480.53;;;28.85;42.24
49825;BME280;35714;55.708;37.478;2023-08-20T11:31:51;99486.75;;;28.78;42.56
49825;BME280;35714;55.708;37.478;2023-08-20T11:34:20;99481.06;;;28.74;43.21
49825;BME280;35714;55.708;37.478;2023-08-20T11:36:47;99455.78;;;28.55;43.60
49825;BME280;35714;55.708;37.478;2023-08-20T11:39:13;99478.13;;;28.55;44.02
49825;BME280;35714;55.708;37.478;2023-08-20T11:41:40;99475.16;;;28.35;44.93
49825;BME280;35714;55.708;37.478;2023-08-20T11:44:08;99472.91;;;28.13;45.38
49825;BME280;35714;55.708;37.478;2023-08-20T11:46:42;99466.88;;;27.98;46.06
49825;BME280;35714;55.708;37.478;2023-08-20T11:49:09;99461.50;;;27.81;46.28
49825;BME280;35714;55.708;37.478;2023-08-20T11:51:42;99456.88;;;27.60;47.09
49825;BME280;35714;55.708;37.478;2023-08-20T11:54:15;99472.44;;;27.36;46.55
49825;BME280;35714;55.708;37.478;2023-08-20T11:56:46;99473.91;;;27.22;45.83
49825;BME280;35714;55.708;37.478;2023-08-20T11:59:13;99486.28;;;26.99;45.97
49825;BME280;35714;55.708;37.478;2023-08-20T12:01:39;99471.19;;;26.88;45.38
49825;BME280;35714;55.708;37.478;2023-08-20T12:04:07;99480.56;;;26.83;44.59
49825;BME280;35714;55.708;37.478;2023-08-20T12:06:34;99492.72;;;26.91;44.77
49825;BME280;35714;55.708;37.478;2023-08-20T12:09:01;99472.38;;;27.24;43.42
49825;BME280;35714;55.708;37.478;2023-08-20T12:11:27;99472.47;;;27.98;43.07
49825;BME280;35714;55.708;37.478;2023-08-20T12:13:54;99460.75;;;28.90;40.63
49825;BME280;35714;55.708;37.478;2023-08-20T12:16:23;99475.22;;;29.56;39.78
49825;BME280;35714;55.708;37.478;2023-08-20T12:18:50;99466.22;;;29.98;38.04
49825;BME280;35714;55.708;37.478;2023-08-20T12:21:16;99485.47;;;29.83;38.80
49825;BME280;35714;55.708;37.478;2023-08-20T12:23:41;99496.72;;;29.71;38.91
49825;BME280;35714;55.708;37.478;2023-08-20T12:26:07;99499.91;;;29.22;40.00
49825;BME280;35714;55.708;37.478;2023-08-20T12:28:34;99499.88;;;28.77;41.36
49825;BME280;35714;55.708;37.478;2023-08-20T12:31:00;99495.38;;;28.32;42.29
49825;BME280;35714;55.708;37.478;2023-08-20T12:33:26;99508.19;;;28.08;42.58
49825;BME280;35714;55.708;37.478;2023-08-20T12:35:55;99512.16;;;27.83;43.34
49825;BME280;35714;55.708;37.478;2023-08-20T12:38:21;99506.59;;;27.70;43.57
49825;BME280;35714;55.708;37.478;2023-08-20T12:40:47;99515.63;;;27.55;43.88
49825;BME280;35714;55.708;37.478;2023-08-20T12:43:12;99529.81;;;27.29;45.02
49825;BME280;35714;55.708;37.478;2023-08-20T12:45:38;99523.63;;;27.11;45.84
49825;BME280;35714;55.708;37.478;2023-08-20T12:48:05;99531.38;;;27.05;47.28
49825;BME280;35714;55.708;37.478;2023-08-20T12:50:30;99536.31;;;26.87;48.64
49825;BME280;35714;55.708;37.478;2023-08-20T12:52:56;99537.81;;;26.63;49.90
49825;BME280;35714;55.708;37.478;2023-08-20T12:55:22;99525.19;;;26.45;50.31
49825;BME280;35714;55.708;37.478;2023-08-20T12:57:57;99519.09;;;26.31;51.17
49825;BME280;35714;55.708;37.478;2023-08-20T13:00:24;99526.56;;;26.18;50.84
49825;BME280;35714;55.708;37.478;2023-08-20T13:02:54;99519.59;;;26.03;50.73
49825;BME280;35714;55.708;37.478;2023-08-20T13:05:24;99519.31;;;25.96;50.84